Big Bear Station Historical Data
Daily Summary for June 19, 2017 Units:  English    Metric   Both
Next Day »
Daily Weekly Monthly Yearly Custom
  High: Low: Average:
Temperature: 95.5 °F 50.4 °F 70.9 °F
Dew Point: 53.9 °F 28.2 °F 40.2 °F
Humidity: 78% 10% 40%
Wind Speed: 6.8mph 0.0mph 1.3mph
Wind Gust: -999.0mph - -
Wind- - SSW
Pressure: 30.26 in 30.19 in -
Precipitation: 0.00 in    
Historical Graphs
 
 
Tabular Data for June 19, 2017
Time Temperature Dew Point Pressure Wind Wind Speed Wind Gust Humidity Rainfall Rate (Hourly)
00:04 57.4 °F 36.2 °F 30.20 in Calm   -999.0 mph 45% 0 in
00:19 57.0 °F 35.9 °F 30.20 in Calm   -999.0 mph 45% 0 in
00:34 56.3 °F 35.8 °F 30.20 in Calm   -999.0 mph 46% 0 in
00:50 56.1 °F 36.1 °F 30.20 in Calm   -999.0 mph 47% 0 in
01:05 55.6 °F 36.7 °F 30.20 in Calm   -999.0 mph 49% 0 in
01:20 55.2 °F 34.8 °F 30.20 in Calm   -999.0 mph 46% 0 in
01:35 54.7 °F 34.3 °F 30.19 in Calm   -999.0 mph 46% 0 in
01:50 54.3 °F 36.6 °F 30.19 in Calm   -999.0 mph 51% 0 in
02:06 54.0 °F 36.8 °F 30.19 in Calm   -999.0 mph 52% 0 in
02:21 53.6 °F 36.4 °F 30.19 in Calm   -999.0 mph 52% 0 in
02:36 53.2 °F 36.5 °F 30.19 in Calm   -999.0 mph 53% 0 in
02:51 52.9 °F 36.2 °F 30.19 in Calm   -999.0 mph 53% 0 in
03:06 52.5 °F 35.9 °F 30.19 in Calm   -999.0 mph 53% 0 in
03:22 52.2 °F 37.4 °F 30.19 in Calm   -999.0 mph 57% 0 in
03:37 52.0 °F 37.2 °F 30.19 in Calm   -999.0 mph 57% 0 in
03:52 52.0 °F 38.5 °F 30.19 in Calm   -999.0 mph 60% 0 in
04:07 51.4 °F 40.0 °F 30.19 in Calm   -999.0 mph 65% 0 in
04:22 51.3 °F 40.3 °F 30.19 in Calm   -999.0 mph 66% 0 in
04:38 51.1 °F 40.9 °F 30.19 in Calm   -999.0 mph 68% 0 in
04:53 50.9 °F 40.3 °F 30.19 in Calm   -999.0 mph 67% 0 in
05:08 50.7 °F 40.1 °F 30.20 in Calm   -999.0 mph 67% 0 in
05:23 50.5 °F 40.7 °F 30.20 in Calm   -999.0 mph 69% 0 in
05:39 50.7 °F 41.3 °F 30.20 in Calm   -999.0 mph 70% 0 in
05:54 50.4 °F 41.4 °F 30.20 in Calm   -999.0 mph 71% 0 in
06:09 50.5 °F 42.2 °F 30.21 in Calm   -999.0 mph 73% 0 in
06:24 50.7 °F 43.4 °F 30.21 in Calm   -999.0 mph 76% 0 in
06:39 50.5 °F 43.6 °F 30.22 in Calm   -999.0 mph 77% 0 in
06:55 51.8 °F 45.2 °F 30.22 in Calm   -999.0 mph 78% 0 in
07:10 52.3 °F 45.0 °F 30.22 in Calm   -999.0 mph 76% 0 in
07:26 53.6 °F 45.5 °F 30.22 in Calm   -999.0 mph 74% 0 in
07:41 54.3 °F 46.5 °F 30.22 in Calm   -999.0 mph 75% 0 in
07:56 55.8 °F 47.6 °F 30.23 in Calm   -999.0 mph 74% 0 in
08:11 57.9 °F 49.3 °F 30.23 in Calm   -999.0 mph 73% 0 in
08:26 60.1 °F 49.1 °F 30.23 in Calm   -999.0 mph 67% 0 in
08:42 61.9 °F 47.4 °F 30.23 in Calm   -999.0 mph 59% 0 in
08:57 64.4 °F 47.4 °F 30.23 in Calm   -999.0 mph 54% 0 in
09:12 67.8 °F 49.5 °F 30.23 in NW 3.2 mph -999.0 mph 52% 0 in
09:28 70.5 °F 50.4 °F 30.23 in Calm   -999.0 mph 49% 0 in
09:43 75.7 °F 47.6 °F 30.23 in WNW 3.7 mph -999.0 mph 37% 0 in
09:58 78.4 °F 35.2 °F 30.23 in ESE 2.2 mph -999.0 mph 21% 0 in
10:13 81.7 °F 31.1 °F 30.23 in SE 1.7 mph -999.0 mph 16% 0 in
10:29 83.8 °F 29.5 °F 30.23 in West 3.2 mph -999.0 mph 14% 0 in
10:44 85.5 °F 30.9 °F 30.23 in ESE 2.7 mph -999.0 mph 14% 0 in
10:59 86.0 °F 29.4 °F 30.23 in West 2.2 mph -999.0 mph 13% 0 in
11:14 86.9 °F 28.2 °F 30.23 in SW 2.7 mph -999.0 mph 12% 0 in
11:30 88.0 °F 29.0 °F 30.23 in WSW 4.7 mph -999.0 mph 12% 0 in
11:45 89.6 °F 30.3 °F 30.23 in South 2.7 mph -999.0 mph 12% 0 in
12:00 91.2 °F 31.5 °F 30.23 in NE 1.7 mph -999.0 mph 12% 0 in
12:15 93.2 °F 33.1 °F 30.23 in ESE 1.1 mph -999.0 mph 12% 0 in
12:30 93.4 °F 31.1 °F 30.23 in SSW 3.7 mph -999.0 mph 11% 0 in
12:46 95.4 °F 34.8 °F 30.23 in North 2.2 mph -999.0 mph 12% 0 in
13:01 93.7 °F 28.9 °F 30.23 in ESE 3.2 mph -999.0 mph 10% 0 in
13:16 93.2 °F 30.9 °F 30.23 in South 2.2 mph -999.0 mph 11% 0 in
13:31 93.7 °F 28.9 °F 30.23 in ESE 1.1 mph -999.0 mph 10% 0 in
13:46 94.8 °F 32.1 °F 30.23 in SSW 2.7 mph -999.0 mph 11% 0 in
14:02 93.7 °F 28.9 °F 30.23 in East 4.2 mph -999.0 mph 10% 0 in
14:17 94.6 °F 32.0 °F 30.23 in SSW 2.2 mph -999.0 mph 11% 0 in
14:32 95.0 °F 32.3 °F 30.23 in West 1.7 mph -999.0 mph 11% 0 in
14:48 94.6 °F 34.1 °F 30.23 in ENE 3.7 mph -999.0 mph 12% 0 in
15:03 94.5 °F 31.9 °F 30.22 in NNE 4.2 mph -999.0 mph 11% 0 in
15:18 95.5 °F 32.7 °F 30.22 in WSW 2.7 mph -999.0 mph 11% 0 in
15:33 94.5 °F 29.5 °F 30.22 in NNW 4.2 mph -999.0 mph 10% 0 in
15:48 93.2 °F 33.1 °F 30.21 in NNW 2.2 mph -999.0 mph 12% 0 in
16:04 91.9 °F 35.9 °F 30.21 in Calm   -999.0 mph 14% 0 in
16:19 91.2 °F 43.2 °F 30.21 in NNE 1.7 mph -999.0 mph 19% 0 in
16:34 89.8 °F 45.9 °F 30.21 in SSE 2.7 mph -999.0 mph 22% 0 in
16:50 91.2 °F 51.5 °F 30.21 in WNW 2.7 mph -999.0 mph 26% 0 in
17:05 93.0 °F 50.9 °F 30.21 in NNW 3.7 mph -999.0 mph 24% 0 in
17:20 90.5 °F 51.0 °F 30.21 in WNW 3.2 mph -999.0 mph 26% 0 in
17:35 88.9 °F 52.5 °F 30.20 in NW 4.2 mph -999.0 mph 29% 0 in
17:51 86.5 °F 53.2 °F 30.21 in WNW 3.7 mph -999.0 mph 32% 0 in
18:06 87.4 °F 53.9 °F 30.21 in WNW 5.8 mph -999.0 mph 32% 0 in
18:22 85.3 °F 53.8 °F 30.21 in NNW 3.7 mph -999.0 mph 34% 0 in
18:37 83.8 °F 53.2 °F 30.22 in WNW 5.3 mph -999.0 mph 35% 0 in
18:52 84.2 °F 51.2 °F 30.22 in WNW 6.8 mph -999.0 mph 32% 0 in
19:08 81.3 °F 50.3 °F 30.22 in SE 1.1 mph -999.0 mph 34% 0 in
19:23 78.6 °F 50.2 °F 30.22 in Calm   -999.0 mph 37% 0 in
19:38 75.9 °F 48.5 °F 30.23 in NW 2.2 mph -999.0 mph 38% 0 in
19:53 74.1 °F 46.9 °F 30.23 in Calm   -999.0 mph 38% 0 in
20:08 73.0 °F 44.5 °F 30.23 in Calm   -999.0 mph 36% 0 in
20:24 71.6 °F 41.7 °F 30.23 in Calm   -999.0 mph 34% 0 in
20:39 69.6 °F 42.9 °F 30.23 in Calm   -999.0 mph 38% 0 in
20:54 68.0 °F 42.1 °F 30.23 in Calm   -999.0 mph 39% 0 in
21:09 67.6 °F 42.4 °F 30.24 in South 2.2 mph -999.0 mph 40% 0 in
21:25 66.9 °F 41.8 °F 30.24 in Calm   -999.0 mph 40% 0 in
21:40 65.1 °F 40.8 °F 30.25 in South 2.2 mph -999.0 mph 41% 0 in
21:55 64.2 °F 40.6 °F 30.25 in Calm   -999.0 mph 42% 0 in
22:10 63.0 °F 41.9 °F 30.25 in Calm   -999.0 mph 46% 0 in
22:26 61.5 °F 41.6 °F 30.26 in Calm   -999.0 mph 48% 0 in
22:41 60.8 °F 40.4 °F 30.26 in Calm   -999.0 mph 47% 0 in
22:56 60.3 °F 40.5 °F 30.26 in Calm   -999.0 mph 48% 0 in
23:11 59.7 °F 42.0 °F 30.26 in South 1.7 mph -999.0 mph 52% 0 in
23:27 59.2 °F 42.1 °F 30.26 in Calm   -999.0 mph 53% 0 in
23:42 58.6 °F 41.0 °F 30.26 in Calm   -999.0 mph 52% 0 in
23:57 58.1 °F 42.0 °F 30.25 in Calm   -999.0 mph 55% 0 in
Big Bear CA Weather